Terminal Aerodrome Forecast
Issued by NWS

Home | Current Version | Previous Version | Text Only | Print | Product List | Glossary On
Versions: 1 2 3 4 5 6 7 8 9 10 11 12 13 14 15 16 17 18 19 20
000
FTUS43 KPAH 280520
TAFCGI
TAF
KCGI 280520Z 2806/2906 VRB04KT P6SM SCT100 BKN250
     FM281200 15010G15KT P6SM SCT050 BKN100
     FM281800 17012G20KT P6SM VCTS SCT025CB BKN050 PROB30 2818/2824
      3SM -TSRA OVC015CB
     FM290300 18012KT 4SM -SHRA OVC012=

USA.gov is the U.S. government's official web portal to all federal, state and local government web resources and services.